Terminal Aerodrome Forecast
Issued by NWS

Home | Current Version | Previous Version | Text Only | Print | Product List | Glossary On
Versions: 1 2 3 4 5 6 7 8 9 10 11 12 13 14 15 16 17 18 19 20 21 22 23 24 25 26 27 28 29 30
000
FTUS43 KGRB 252348
TAFRHI
TAF
KRHI 252348Z 2600/2624 23007KT P6SM BKN035 BKN060
     FM260600 23004KT 4SM BR SCT006 BKN200
     FM260800 22003KT 1 1/2SM BR BKN005
      TEMPO 2609/2613 3/4SM BR
     FM261500 22007KT P6SM BKN015 BKN100
     FM261800 22007KT P6SM SCT035 BKN070
     FM262000 24005KT P6SM -SHRA BKN035 OVC070=

USA.gov is the U.S. government's official web portal to all federal, state and local government web resources and services.